STI weather

Aeroclub San Martín
San Martin, Mendoza Province, Argentina

Public forecast

Using degrees Celsius for public forecast. Weather courtesy of forecast.io.

METAR (pilot weather report)

Closest report is El Plumerillo Airport, 19.9 nm (36.9 km) NW. Retrieved 2019/07/23 15:00 UTC (23 minutes ago):

SAME 231500Z 18008KT CAVOK 09/M05 Q1026

TAF (pilot weather forecast)

Forecast is more than 6 hours old.

Closest forecast is El Plumerillo Airport, 19.9 nm (36.9 km) NW. Retrieved 2019/07/23 06:00 UTC (9 hours ago):

TAF SAME 230500Z 2306/2406 20005KT 9999 OVC030 TX13/2320Z TN01/2311Z BECMG 2317/2319 VRB03KT CAVOK